createdAt,value
2019-04-11T00:02:27.491Z,3.50
2019-04-11T00:07:32.130Z,3.00
2019-04-11T00:12:36.901Z,2.63
2019-04-11T00:17:41.842Z,2.43
2019-04-11T00:22:47.827Z,2.70
2019-04-11T00:27:53.141Z,3.13
2019-04-11T00:32:58.067Z,2.87
2019-04-11T00:38:03.153Z,3.23
2019-04-11T00:43:07.774Z,3.10
2019-04-11T00:48:11.884Z,3.40
2019-04-11T00:53:16.331Z,3.27
2019-04-11T00:58:21.338Z,3.10
2019-04-11T01:03:26.405Z,2.97
2019-04-11T01:08:31.519Z,3.10
2019-04-11T01:13:44.708Z,2.80
2019-04-11T01:18:44.386Z,3.00
2019-04-11T01:23:49.152Z,2.90
2019-04-11T01:28:53.765Z,2.80
2019-04-11T01:33:58.606Z,3.23
2019-04-11T01:39:10.623Z,2.97
2019-04-11T01:44:16.519Z,3.23
2019-04-11T01:49:22.553Z,3.13
2019-04-11T01:54:28.099Z,3.40
2019-04-11T01:59:33.282Z,3.50
2019-04-11T02:04:43.945Z,3.43
2019-04-11T02:09:48.693Z,3.33
2019-04-11T02:14:53.411Z,3.10
2019-04-11T02:19:58.701Z,3.23
2019-04-11T02:25:21.331Z,3.37
2019-04-11T02:30:27.711Z,3.80
2019-04-11T02:35:32.111Z,3.93
2019-04-11T02:40:38.666Z,3.80
2019-04-11T02:45:55.498Z,4.13
2019-04-11T02:50:50.892Z,3.57
2019-04-11T02:55:56.589Z,3.87
2019-04-11T03:01:05.198Z,3.93
2019-04-11T03:06:09.685Z,3.77
2019-04-11T03:11:16.760Z,3.70
2019-04-11T03:16:36.834Z,3.50
2019-04-11T03:21:30.829Z,3.70
2019-04-11T03:26:35.485Z,3.80
2019-04-11T03:37:22.283Z,3.90
2019-04-11T03:42:11.077Z,4.83
2019-04-11T03:47:16.699Z,4.10
2019-04-11T03:52:08.190Z,4.13
2019-04-11T03:57:13.435Z,4.47
2019-04-11T04:02:20.248Z,4.50
2019-04-11T04:07:27.692Z,5.23
2019-04-11T04:12:33.660Z,3.90
2019-04-11T04:17:59.546Z,3.80
2019-04-11T04:23:12.394Z,4.23
2019-04-11T04:28:19.116Z,3.83
2019-04-11T04:33:23.872Z,4.40
2019-04-11T04:38:29.568Z,4.27
2019-04-11T04:43:36.361Z,3.80
2019-04-11T04:48:42.532Z,3.87
2019-04-11T04:53:48.130Z,4.17
2019-04-11T04:58:54.050Z,3.80
2019-04-11T05:03:59.104Z,4.17
2019-04-11T05:09:06.533Z,4.27
2019-04-11T05:14:12.437Z,4.80
2019-04-11T05:19:17.222Z,4.57
2019-04-11T05:24:22.898Z,4.93
2019-04-11T05:29:29.161Z,4.50
2019-04-11T05:34:35.204Z,5.20
2019-04-11T05:39:41.370Z,4.57
2019-04-11T05:44:47.094Z,4.77
2019-04-11T05:50:13.757Z,5.27
2019-04-11T05:55:19.495Z,5.40
2019-04-11T06:00:53.290Z,4.37
2019-04-11T06:06:16.373Z,4.90
2019-04-11T06:11:40.966Z,5.77
2019-04-11T06:16:52.595Z,6.60
2019-04-11T06:22:00.177Z,6.00
2019-04-11T06:27:13.747Z,6.07
2019-04-11T06:32:46.102Z,5.30
2019-04-11T06:38:22.672Z,6.80
2019-04-11T06:43:43.016Z,5.60
2019-04-11T06:48:58.095Z,4.93
2019-04-11T06:54:37.257Z,5.63
2019-04-11T06:59:44.936Z,6.10
2019-04-11T07:04:52.172Z,5.27
2019-04-11T07:10:02.118Z,5.23
2019-04-11T07:15:18.719Z,6.63
2019-04-11T07:20:43.555Z,5.37
2019-04-11T07:26:10.859Z,4.97
2019-04-11T07:31:33.876Z,6.13
2019-04-11T07:37:10.450Z,5.87
2019-04-11T07:42:40.974Z,4.77
2019-04-11T07:47:52.581Z,5.83
2019-04-11T07:53:01.416Z,5.37
2019-04-11T07:58:28.600Z,6.73
2019-04-11T08:03:46.967Z,6.33
2019-04-11T08:09:13.181Z,7.17
2019-04-11T08:14:37.041Z,6.20
2019-04-11T08:19:59.879Z,4.73
2019-04-11T08:25:25.046Z,6.97
2019-04-11T08:30:35.493Z,7.63
2019-04-11T08:36:11.515Z,5.27
2019-04-11T08:41:44.438Z,5.33
2019-04-11T08:46:54.143Z,5.13
2019-04-11T08:52:00.834Z,4.90
2019-04-11T08:57:07.615Z,4.33
2019-04-11T09:02:37.980Z,7.83
2019-04-11T09:07:52.131Z,5.83
2019-04-11T09:13:07.139Z,5.13
2019-04-11T09:18:14.908Z,5.70
2019-04-11T09:23:22.357Z,5.00
2019-04-11T09:28:34.171Z,5.63
2019-04-11T09:34:03.741Z,5.13
2019-04-11T09:39:17.496Z,5.50
2019-04-11T09:44:28.868Z,4.70
2019-04-11T09:49:42.966Z,5.90
2019-04-11T09:55:07.080Z,5.33
2019-04-11T10:00:34.741Z,5.27
2019-04-11T10:05:51.529Z,5.10
2019-04-11T10:11:21.998Z,3.80
2019-04-11T10:16:46.537Z,4.97
2019-04-11T10:21:56.821Z,3.63
2019-04-11T10:27:08.794Z,6.27
2019-04-11T10:32:15.018Z,7.43
2019-04-11T10:37:20.873Z,5.43
2019-04-11T10:42:26.612Z,4.80
2019-04-11T10:47:33.284Z,6.43
2019-04-11T10:52:42.444Z,5.40
2019-04-11T10:58:08.820Z,6.67
2019-04-11T11:03:22.250Z,5.33
2019-04-11T11:08:33.325Z,6.50
2019-04-11T11:14:04.556Z,5.83
2019-04-11T11:19:50.243Z,7.53
2019-04-11T11:25:12.691Z,4.80
2019-04-11T11:30:33.642Z,5.67
2019-04-11T11:36:09.988Z,5.87
2019-04-11T11:41:43.376Z,6.30
2019-04-11T11:47:15.850Z,6.37
2019-04-11T11:52:35.009Z,4.50
2019-04-11T11:57:47.218Z,5.03
2019-04-11T12:03:02.370Z,5.50
2019-04-11T12:08:18.188Z,3.93
2019-04-11T12:13:41.134Z,5.83
2019-04-11T12:18:55.104Z,7.77
2019-04-11T12:24:22.982Z,6.50
2019-04-11T12:29:46.834Z,4.73
2019-04-11T12:35:02.240Z,7.10
2019-04-11T12:40:24.939Z,4.97
2019-04-11T12:45:50.905Z,7.63
2019-04-11T12:51:20.677Z,6.47
2019-04-11T12:56:54.365Z,5.00
2019-04-11T13:02:31.275Z,8.17
2019-04-11T13:08:12.826Z,7.20
2019-04-11T13:13:43.015Z,8.47
2019-04-11T13:19:00.219Z,6.20
2019-04-11T13:24:29.696Z,6.93
2019-04-11T13:29:59.769Z,5.30
2019-04-11T13:35:10.859Z,7.80
2019-04-11T13:40:37.963Z,6.00
2019-04-11T13:46:04.963Z,6.87
2019-04-11T13:51:17.277Z,6.67
2019-04-11T13:56:27.936Z,9.17
2019-04-11T14:01:34.982Z,8.77
2019-04-11T14:06:55.501Z,7.43
2019-04-11T14:12:04.896Z,8.80
2019-04-11T14:17:29.815Z,5.93
2019-04-11T14:22:58.296Z,8.77
2019-04-11T14:28:03.574Z,5.10
2019-04-11T14:33:08.398Z,8.00
2019-04-11T14:38:15.277Z,7.60
2019-04-11T14:43:31.271Z,8.80
2019-04-11T14:48:47.689Z,6.23
2019-04-11T14:54:05.227Z,7.53
2019-04-11T14:59:38.064Z,7.40
2019-04-11T15:05:00.356Z,8.87
2019-04-11T15:10:40.422Z,6.57
2019-04-11T15:16:10.903Z,8.20
2019-04-11T15:21:32.370Z,8.10
2019-04-11T15:27:02.671Z,7.70
2019-04-11T15:32:26.958Z,7.90
2019-04-11T15:37:47.422Z,8.50
2019-04-11T15:43:11.584Z,8.17
2019-04-11T15:48:38.196Z,7.00
2019-04-11T15:53:56.190Z,8.93
2019-04-11T15:59:12.931Z,7.47
2019-04-11T16:04:36.907Z,6.60
2019-04-11T16:09:42.266Z,6.87
2019-04-11T16:14:47.971Z,6.50
2019-04-11T16:19:54.942Z,7.47
2019-04-11T16:25:02.756Z,7.13
2019-04-11T16:30:11.774Z,8.40
2019-04-11T16:35:23.828Z,8.00
2019-04-11T16:40:46.824Z,9.50
2019-04-11T16:46:25.575Z,8.43
2019-04-11T16:51:31.295Z,7.30
2019-04-11T16:56:36.056Z,5.90
2019-04-11T17:01:40.568Z,6.60
2019-04-11T17:07:01.723Z,6.60
2019-04-11T17:12:06.510Z,7.53
2019-04-11T17:17:15.225Z,7.53
2019-04-11T17:22:18.933Z,7.93
2019-04-11T17:27:23.303Z,6.00
2019-04-11T17:32:28.736Z,6.63
2019-04-11T17:37:33.789Z,6.53
2019-04-11T17:42:38.410Z,6.67
2019-04-11T17:47:44.818Z,7.70
2019-04-11T17:52:48.852Z,8.37
2019-04-11T17:57:54.894Z,6.47
2019-04-11T18:03:03.679Z,6.57
2019-04-11T18:08:09.883Z,5.43
2019-04-11T18:13:19.748Z,5.30
2019-04-11T18:18:35.798Z,5.80
2019-04-11T18:23:40.851Z,7.50
2019-04-11T18:28:45.793Z,6.33
2019-04-11T18:33:51.164Z,6.20
2019-04-11T18:38:55.853Z,5.93
2019-04-11T18:44:01.388Z,5.67
2019-04-11T18:49:06.238Z,5.50
2019-04-11T18:54:11.818Z,5.73
2019-04-11T18:59:16.521Z,5.47
2019-04-11T19:04:31.804Z,6.50
2019-04-11T19:09:32.426Z,5.40
2019-04-11T19:14:37.266Z,6.20
2019-04-11T19:19:48.636Z,7.00
2019-04-11T19:24:52.210Z,6.03
2019-04-11T19:29:57.438Z,5.90
2019-04-11T19:35:02.775Z,6.33
2019-04-11T19:40:09.958Z,5.23
2019-04-11T19:45:14.301Z,6.37
2019-04-11T19:50:19.904Z,5.63
2019-04-11T19:55:37.916Z,5.20
2019-04-11T20:00:42.658Z,5.30
2019-04-11T20:05:50.384Z,5.37
2019-04-11T20:10:55.333Z,6.47
2019-04-11T20:16:12.226Z,4.97
2019-04-11T20:21:15.564Z,5.33
2019-04-11T20:26:21.158Z,4.60
2019-04-11T20:31:26.302Z,4.80
2019-04-11T20:36:33.570Z,5.30
2019-04-11T20:41:38.800Z,4.70
2019-04-11T20:46:43.738Z,4.90
2019-04-11T20:51:48.300Z,4.63
2019-04-11T20:56:53.456Z,4.33
2019-04-11T21:01:58.487Z,4.60
2019-04-11T21:07:04.513Z,4.30
2019-04-11T21:12:09.169Z,4.07
2019-04-11T21:17:14.822Z,4.63
2019-04-11T21:22:23.940Z,5.07
2019-04-11T21:27:28.982Z,5.13
2019-04-11T21:32:33.719Z,4.67
2019-04-11T21:37:37.812Z,5.00
2019-04-11T21:42:42.651Z,5.03
2019-04-11T21:47:47.555Z,5.20
2019-04-11T21:52:52.071Z,5.80
2019-04-11T21:57:56.774Z,5.20
2019-04-11T22:03:01.626Z,5.23
2019-04-11T22:08:06.608Z,4.77
2019-04-11T22:13:11.266Z,5.27
2019-04-11T22:18:17.026Z,4.90
2019-04-11T22:23:21.855Z,4.73
2019-04-11T22:28:26.000Z,5.93
2019-04-11T22:33:38.306Z,4.97
2019-04-11T22:38:43.033Z,5.90
2019-04-11T22:43:48.415Z,4.67
2019-04-11T22:48:53.123Z,4.40
2019-04-11T22:54:00.548Z,5.20
2019-04-11T22:59:05.030Z,5.00
2019-04-11T23:04:10.253Z,5.07
2019-04-11T23:09:16.598Z,6.07
2019-04-11T23:14:21.197Z,5.53
2019-04-11T23:19:25.782Z,5.47
2019-04-11T23:24:30.282Z,5.00
2019-04-11T23:29:34.825Z,4.80
2019-04-11T23:34:39.361Z,4.67
2019-04-11T23:39:43.898Z,5.80
2019-04-11T23:44:50.491Z,4.47
2019-04-11T23:49:56.072Z,5.07
2019-04-11T23:55:01.070Z,5.50
